Terminal Aerodrome Forecast
Issued by NWS San Angelo, TX

Home | Current Version | Previous Version | Text Only | Print | Product List | Glossary On
Versions: 1 2 3 4 5 6 7 8 9 10 11 12 13
000
FTUS44 KSJT 271724
TAFSJT
TAF
KSJT 271724Z 2718/2818 19019G29KT P6SM FEW250
     FM280200 19016G23KT P6SM FEW250
     FM281000 10013G20KT P6SM SCT015=

USA.gov is the U.S. government's official web portal to all federal, state and local government web resources and services.